createdAt,value
2023-04-09T00:01:23.669Z,1.47
2023-04-09T00:03:54.735Z,1.53
2023-04-09T00:06:26.175Z,1.80
2023-04-09T00:08:57.254Z,1.57
2023-04-09T00:11:28.321Z,1.70
2023-04-09T00:14:00.705Z,1.50
2023-04-09T00:16:31.787Z,1.60
2023-04-09T00:19:03.148Z,1.47
2023-04-09T00:21:34.340Z,1.50
2023-04-09T00:24:05.797Z,2.07
2023-04-09T00:26:36.899Z,1.30
2023-04-09T00:29:08.095Z,1.57
2023-04-09T00:31:39.225Z,1.47
2023-04-09T00:34:10.562Z,1.37
2023-04-09T00:36:41.512Z,1.73
2023-04-09T00:39:12.388Z,2.10
2023-04-09T00:41:43.329Z,1.70
2023-04-09T00:44:14.385Z,2.70
2023-04-09T00:46:45.364Z,2.87
2023-04-09T00:49:16.393Z,1.93
2023-04-09T00:51:47.920Z,3.50
2023-04-09T00:54:19.320Z,3.03
2023-04-09T00:56:50.800Z,2.60
2023-04-09T00:59:22.381Z,3.33
2023-04-09T01:01:53.452Z,4.13
2023-04-09T01:04:25.851Z,2.00
2023-04-09T01:09:40.185Z,2.53
2023-04-09T01:12:15.429Z,3.90
2023-04-09T01:14:49.390Z,2.70
2023-04-09T01:17:24.777Z,4.77
2023-04-09T01:20:01.052Z,2.47
2023-04-09T01:22:36.582Z,2.40
2023-04-09T01:25:13.155Z,2.47
2023-04-09T01:27:50.132Z,1.90
2023-04-09T01:30:22.469Z,2.53
2023-04-09T01:32:54.841Z,4.20
2023-04-09T01:35:27.457Z,5.47
2023-04-09T01:37:59.783Z,2.53
2023-04-09T01:40:31.241Z,2.93
2023-04-09T01:43:04.082Z,2.20
2023-04-09T01:45:36.255Z,3.23
2023-04-09T01:48:08.545Z,2.27
2023-04-09T01:50:41.246Z,2.87
2023-04-09T01:53:12.283Z,3.53
2023-04-09T01:55:43.278Z,4.23
2023-04-09T01:58:14.638Z,4.07
2023-04-09T02:00:49.076Z,2.33
2023-04-09T02:03:23.190Z,3.07
2023-04-09T02:05:57.054Z,2.50
2023-04-09T02:08:29.585Z,2.40
2023-04-09T02:11:03.208Z,4.17
2023-04-09T02:13:36.325Z,2.47
2023-04-09T02:16:08.937Z,3.53
2023-04-09T02:18:40.069Z,2.40
2023-04-09T02:21:13.844Z,2.43
2023-04-09T02:23:44.733Z,4.03
2023-04-09T02:26:15.697Z,2.77
2023-04-09T02:28:46.718Z,4.90
2023-04-09T02:31:17.763Z,2.70
2023-04-09T02:33:48.856Z,3.13
2023-04-09T02:36:19.860Z,2.97
2023-04-09T02:38:51.250Z,4.07
2023-04-09T02:41:22.505Z,3.07
2023-04-09T02:43:53.432Z,3.70
2023-04-09T02:46:24.480Z,2.93
2023-04-09T02:48:55.626Z,3.30
2023-04-09T02:51:27.550Z,4.93
2023-04-09T02:53:58.619Z,2.70
2023-04-09T02:56:29.669Z,2.73
2023-04-09T02:59:00.709Z,3.50
2023-04-09T03:01:31.895Z,2.53
2023-04-09T03:04:03.128Z,3.90
2023-04-09T03:06:34.652Z,3.23
2023-04-09T03:09:05.748Z,2.93
2023-04-09T03:11:36.755Z,3.80
2023-04-09T03:14:07.723Z,2.83
2023-04-09T03:16:38.753Z,3.20
2023-04-09T03:19:09.660Z,6.07
2023-04-09T03:21:41.104Z,3.43
2023-04-09T03:24:12.040Z,4.17
2023-04-09T03:26:43.170Z,3.57
2023-04-09T03:29:14.075Z,2.70
2023-04-09T03:31:46.033Z,3.33
2023-04-09T03:34:17.270Z,5.13
2023-04-09T03:36:48.329Z,3.53
2023-04-09T03:39:19.418Z,3.83
2023-04-09T03:41:50.516Z,3.30
2023-04-09T03:44:21.582Z,3.47
2023-04-09T03:46:52.727Z,3.90
2023-04-09T03:49:23.870Z,4.17
2023-04-09T03:51:55.131Z,2.67
2023-04-09T03:54:26.112Z,4.33
2023-04-09T03:56:57.338Z,5.17
2023-04-09T03:59:28.501Z,4.03
2023-04-09T04:01:59.502Z,4.43
2023-04-09T04:04:30.767Z,4.63
2023-04-09T04:07:01.833Z,4.00
2023-04-09T04:09:33.032Z,4.00
2023-04-09T04:12:05.123Z,4.30
2023-04-09T04:14:36.636Z,3.80
2023-04-09T04:17:07.594Z,3.93
2023-04-09T04:19:38.726Z,3.23
2023-04-09T04:22:09.776Z,3.90
2023-04-09T04:24:40.517Z,3.53
2023-04-09T04:27:11.391Z,4.37
2023-04-09T04:29:42.686Z,4.53
2023-04-09T04:32:13.730Z,6.07
2023-04-09T04:34:44.726Z,3.70
2023-04-09T04:37:17.356Z,3.80
2023-04-09T04:39:48.912Z,3.80
2023-04-09T04:42:21.108Z,3.30
2023-04-09T04:44:52.004Z,3.83
2023-04-09T04:47:23.364Z,3.70
2023-04-09T04:49:54.817Z,3.23
2023-04-09T04:52:25.947Z,4.20
2023-04-09T04:54:57.079Z,5.23
2023-04-09T04:57:28.035Z,3.07
2023-04-09T04:59:59.100Z,4.00
2023-04-09T05:02:30.172Z,3.90
2023-04-09T05:05:01.307Z,7.80
2023-04-09T05:07:32.425Z,5.90
2023-04-09T05:10:03.752Z,6.23
2023-04-09T05:12:35.463Z,6.00
2023-04-09T05:15:08.472Z,4.03
2023-04-09T05:17:39.583Z,4.00
2023-04-09T05:20:13.001Z,5.60
2023-04-09T05:22:44.018Z,3.80
2023-04-09T05:25:16.335Z,4.83
2023-04-09T05:27:47.606Z,4.43
2023-04-09T05:30:18.631Z,4.17
2023-04-09T05:32:49.648Z,4.73
2023-04-09T05:35:20.998Z,4.03
2023-04-09T05:37:52.039Z,4.50
2023-04-09T05:40:23.617Z,4.17
2023-04-09T05:42:54.701Z,5.20
2023-04-09T05:45:25.965Z,4.67
2023-04-09T05:47:57.027Z,5.03
2023-04-09T05:50:28.596Z,4.70
2023-04-09T05:52:59.541Z,4.17
2023-04-09T05:55:30.181Z,7.30
2023-04-09T05:58:01.436Z,4.57
2023-04-09T06:00:32.364Z,4.50
2023-04-09T06:03:03.550Z,4.53
2023-04-09T06:05:34.722Z,7.00
2023-04-09T06:08:06.384Z,8.57
2023-04-09T06:10:38.140Z,4.47
2023-04-09T06:13:11.501Z,4.30
2023-04-09T06:15:43.269Z,4.63
2023-04-09T06:18:14.850Z,4.47
2023-04-09T06:20:46.325Z,3.97
2023-04-09T06:23:17.294Z,5.27
2023-04-09T06:25:48.372Z,5.57
2023-04-09T06:28:19.461Z,4.13
2023-04-09T06:30:50.825Z,4.03
2023-04-09T06:33:22.528Z,5.83
2023-04-09T06:35:53.729Z,4.03
2023-04-09T06:38:24.804Z,3.87
2023-04-09T06:40:57.687Z,4.23
2023-04-09T06:43:28.875Z,3.93
2023-04-09T06:45:59.765Z,4.00
2023-04-09T06:48:31.559Z,5.40
2023-04-09T06:51:02.901Z,4.80
2023-04-09T06:53:34.263Z,5.30
2023-04-09T06:56:06.435Z,4.37
2023-04-09T06:58:37.504Z,3.30
2023-04-09T07:01:09.021Z,4.20
2023-04-09T07:03:40.761Z,4.47
2023-04-09T07:06:11.911Z,6.00
2023-04-09T07:08:42.964Z,4.67
2023-04-09T07:11:14.064Z,4.80
2023-04-09T07:13:45.069Z,3.83
2023-04-09T07:16:16.412Z,5.13
2023-04-09T07:18:47.522Z,7.77
2023-04-09T07:21:19.489Z,4.07
2023-04-09T07:23:51.305Z,4.03
2023-04-09T07:26:23.063Z,3.63
2023-04-09T07:28:54.253Z,3.53
2023-04-09T07:31:26.140Z,4.27
2023-04-09T07:33:56.839Z,3.57
2023-04-09T07:36:28.195Z,4.13
2023-04-09T07:38:58.865Z,3.50
2023-04-09T07:41:29.685Z,3.93
2023-04-09T07:44:00.731Z,3.60
2023-04-09T07:46:31.451Z,3.70
2023-04-09T07:49:02.166Z,3.70
2023-04-09T07:51:33.392Z,3.60
2023-04-09T07:54:04.337Z,4.40
2023-04-09T07:56:35.103Z,3.63
2023-04-09T07:59:07.212Z,4.20
2023-04-09T08:01:38.154Z,4.33
2023-04-09T08:04:09.182Z,4.90
2023-04-09T08:06:40.211Z,3.63
2023-04-09T08:09:11.300Z,3.23
2023-04-09T08:11:42.079Z,4.87
2023-04-09T08:14:13.185Z,4.17
2023-04-09T08:16:45.973Z,3.67
2023-04-09T08:19:19.315Z,3.83
2023-04-09T08:21:50.123Z,3.90
2023-04-09T08:24:21.707Z,4.50
2023-04-09T08:26:52.555Z,5.20
2023-04-09T08:29:23.172Z,3.87
2023-04-09T08:31:53.986Z,4.40
2023-04-09T08:34:24.936Z,4.83
2023-04-09T08:36:55.751Z,3.30
2023-04-09T08:39:26.484Z,5.27
2023-04-09T08:42:00.177Z,3.57
2023-04-09T08:44:31.581Z,3.93
2023-04-09T08:47:02.884Z,3.77
2023-04-09T08:49:33.654Z,3.93
2023-04-09T08:52:04.748Z,4.63
2023-04-09T08:54:36.787Z,4.13
2023-04-09T08:57:10.564Z,4.37
2023-04-09T08:59:41.296Z,4.17
2023-04-09T09:02:13.051Z,4.93
2023-04-09T09:04:53.598Z,4.20
2023-04-09T09:07:24.723Z,6.10
2023-04-09T09:09:56.669Z,3.83
2023-04-09T09:12:39.044Z,3.10
2023-04-09T09:15:27.365Z,3.83
2023-04-09T09:18:00.780Z,3.10
2023-04-09T09:20:32.286Z,3.20
2023-04-09T09:23:03.953Z,3.20
2023-04-09T09:25:40.666Z,3.13
2023-04-09T09:28:14.199Z,3.90
2023-04-09T09:30:49.042Z,3.20
2023-04-09T09:33:19.586Z,2.70
2023-04-09T09:35:51.314Z,2.90
2023-04-09T09:38:22.589Z,2.60
2023-04-09T09:40:53.454Z,3.83
2023-04-09T09:43:24.214Z,2.70
2023-04-09T09:45:57.871Z,4.00
2023-04-09T09:48:28.586Z,2.93
2023-04-09T09:51:00.643Z,2.70
2023-04-09T09:53:34.108Z,2.53
2023-04-09T09:56:06.266Z,2.30
2023-04-09T09:58:39.766Z,3.93
2023-04-09T10:01:13.437Z,3.33
2023-04-09T10:03:45.934Z,2.10
2023-04-09T10:06:17.540Z,2.23
2023-04-09T10:08:50.268Z,2.80
2023-04-09T10:11:23.609Z,3.07
2023-04-09T10:13:58.115Z,2.20
2023-04-09T10:16:29.183Z,2.00
2023-04-09T10:19:01.588Z,2.60
2023-04-09T10:21:36.936Z,2.20
2023-04-09T10:24:09.808Z,2.90
2023-04-09T10:29:22.232Z,3.77
2023-04-09T10:31:56.268Z,2.63
2023-04-09T10:34:29.585Z,4.47
2023-04-09T10:37:00.777Z,2.13
2023-04-09T10:42:15.405Z,2.43
2023-04-09T10:44:46.237Z,3.83
2023-04-09T10:47:19.924Z,2.07
2023-04-09T10:49:52.161Z,2.73
2023-04-09T10:52:26.042Z,3.43
2023-04-09T10:54:57.403Z,2.40
2023-04-09T10:57:28.307Z,2.80
2023-04-09T10:59:59.270Z,2.33
2023-04-09T11:05:34.709Z,2.17
2023-04-09T11:08:09.713Z,2.47
2023-04-09T11:10:42.698Z,2.43
2023-04-09T11:13:15.684Z,2.30
2023-04-09T11:15:47.143Z,1.93
2023-04-09T11:18:19.955Z,1.90
2023-04-09T11:20:50.826Z,7.90
2023-04-09T11:23:21.729Z,3.13
2023-04-09T11:25:53.964Z,2.23
2023-04-09T11:31:07.632Z,3.17
2023-04-09T11:33:38.674Z,2.13
2023-04-09T11:36:10.110Z,2.30
2023-04-09T11:38:41.700Z,2.00
2023-04-09T11:43:52.736Z,1.80
2023-04-09T11:46:25.180Z,2.03
2023-04-09T11:48:56.865Z,2.67
2023-04-09T11:51:28.412Z,3.33
2023-04-09T11:54:00.523Z,2.07
2023-04-09T11:56:33.182Z,2.40
2023-04-09T11:59:04.657Z,2.30
2023-04-09T12:01:35.894Z,2.80
2023-04-09T12:04:08.061Z,2.67
2023-04-09T12:06:43.135Z,4.00
2023-04-09T12:09:14.496Z,1.83
2023-04-09T12:11:47.077Z,1.70
2023-04-09T12:14:19.506Z,1.80
2023-04-09T12:16:53.760Z,1.93
2023-04-09T12:19:28.138Z,2.47
2023-04-09T12:21:59.051Z,2.17
2023-04-09T12:24:29.931Z,1.70
2023-04-09T12:27:01.729Z,2.00
2023-04-09T12:29:34.608Z,3.13
2023-04-09T12:32:05.914Z,3.07
2023-04-09T12:34:37.452Z,1.67
2023-04-09T12:37:08.361Z,2.10
2023-04-09T12:39:39.494Z,1.70
2023-04-09T12:42:10.423Z,1.60
2023-04-09T12:47:19.475Z,1.50
2023-04-09T12:49:50.820Z,1.60
2023-04-09T12:52:22.740Z,3.50
2023-04-09T12:54:54.290Z,3.33
2023-04-09T12:57:25.185Z,1.70
2023-04-09T12:59:59.044Z,1.70
2023-04-09T13:02:33.547Z,1.60
2023-04-09T13:05:05.310Z,1.23
2023-04-09T13:07:36.440Z,1.87
2023-04-09T13:10:08.462Z,1.50
2023-04-09T13:12:39.363Z,2.00
2023-04-09T13:15:12.452Z,2.03
2023-04-09T13:17:43.343Z,2.00
2023-04-09T13:20:14.824Z,1.83
2023-04-09T13:22:47.837Z,2.83
2023-04-09T13:27:55.722Z,1.83
2023-04-09T13:30:26.458Z,1.30
2023-04-09T13:32:57.880Z,1.40
2023-04-09T13:35:28.669Z,1.67
2023-04-09T13:37:59.327Z,1.53
2023-04-09T13:40:30.302Z,1.90
2023-04-09T13:43:01.029Z,1.50
2023-04-09T13:45:31.826Z,1.33
2023-04-09T13:48:02.544Z,2.12
2023-04-09T13:50:33.256Z,1.57
2023-04-09T13:53:05.472Z,1.72
2023-04-09T13:55:36.174Z,1.73
2023-04-09T13:58:06.863Z,1.63
2023-04-09T14:00:39.503Z,1.60
2023-04-09T14:03:10.539Z,2.70
2023-04-09T14:05:41.403Z,1.50
2023-04-09T14:08:12.483Z,2.13
2023-04-09T14:10:43.194Z,1.60
2023-04-09T14:13:14.173Z,2.17
2023-04-09T14:15:45.671Z,2.40
2023-04-09T14:18:16.310Z,1.53
2023-04-09T14:20:47.400Z,1.30
2023-04-09T14:23:18.361Z,2.27
2023-04-09T14:25:49.116Z,1.57
2023-04-09T14:28:20.219Z,2.00
2023-04-09T14:30:51.978Z,3.90
2023-04-09T14:33:22.697Z,3.83
2023-04-09T14:38:30.874Z,2.10
2023-04-09T14:41:01.755Z,1.60
2023-04-09T14:43:32.446Z,2.13
2023-04-09T14:46:04.139Z,2.03
2023-04-09T14:48:35.000Z,3.40
2023-04-09T14:51:07.763Z,1.87
2023-04-09T14:53:42.497Z,1.53
2023-04-09T14:58:49.888Z,2.02
2023-04-09T15:01:21.591Z,2.47
2023-04-09T15:03:52.514Z,2.00
2023-04-09T15:06:23.780Z,2.47
2023-04-09T15:08:54.828Z,2.33
2023-04-09T15:11:27.119Z,2.10
2023-04-09T15:13:58.147Z,1.30
2023-04-09T15:19:08.270Z,1.90
2023-04-09T15:21:39.011Z,2.03
2023-04-09T15:24:12.377Z,2.13
2023-04-09T15:26:43.536Z,1.90
2023-04-09T15:29:14.311Z,1.83
2023-04-09T15:31:45.196Z,1.40
2023-04-09T15:34:16.152Z,2.13
2023-04-09T15:36:47.463Z,3.27
2023-04-09T15:39:18.179Z,2.03
2023-04-09T15:41:50.001Z,2.30
2023-04-09T15:44:21.129Z,1.90
2023-04-09T15:46:51.973Z,1.57
2023-04-09T15:49:23.198Z,1.97
2023-04-09T15:51:54.026Z,2.30
2023-04-09T15:54:24.917Z,1.43
2023-04-09T15:56:55.725Z,1.67
2023-04-09T15:59:26.583Z,1.73
2023-04-09T16:01:57.424Z,1.90
2023-04-09T16:04:28.524Z,1.40
2023-04-09T16:06:59.293Z,1.53
2023-04-09T16:09:30.092Z,1.37
2023-04-09T16:12:01.738Z,2.20
2023-04-09T16:14:32.640Z,3.87
2023-04-09T16:17:03.405Z,1.50
2023-04-09T16:19:34.455Z,1.47
2023-04-09T16:22:05.279Z,1.43
2023-04-09T16:27:13.684Z,2.80
2023-04-09T16:29:44.449Z,1.57
2023-04-09T16:32:15.741Z,1.50
2023-04-09T16:34:47.566Z,1.40
2023-04-09T16:37:18.391Z,1.50
2023-04-09T16:39:49.112Z,1.47
2023-04-09T16:42:19.965Z,2.43
2023-04-09T16:44:51.259Z,1.43
2023-04-09T16:47:21.957Z,1.20
2023-04-09T16:49:52.716Z,1.50
2023-04-09T16:52:23.356Z,1.30
2023-04-09T16:54:54.049Z,1.57
2023-04-09T16:57:25.984Z,2.07
2023-04-09T16:59:57.291Z,2.43
2023-04-09T17:02:28.754Z,1.27
2023-04-09T17:07:36.889Z,1.50
2023-04-09T17:12:48.629Z,1.53
2023-04-09T17:15:19.554Z,1.53
2023-04-09T17:20:29.573Z,1.63
2023-04-09T17:23:19.083Z,1.40
2023-04-09T17:25:50.085Z,2.27
2023-04-09T17:28:20.776Z,1.37
2023-04-09T17:30:52.768Z,1.73
2023-04-09T17:33:23.476Z,2.23
2023-04-09T17:35:54.351Z,2.40
2023-04-09T17:38:25.423Z,1.52
2023-04-09T17:43:35.360Z,1.40
2023-04-09T17:46:07.808Z,1.77
2023-04-09T17:48:38.913Z,1.60
2023-04-09T17:51:10.308Z,1.50
2023-04-09T17:53:41.035Z,3.63
2023-04-09T17:56:16.394Z,1.43
2023-04-09T17:58:47.908Z,1.80
2023-04-09T18:01:18.936Z,3.60
2023-04-09T18:03:50.670Z,1.73
2023-04-09T18:06:21.652Z,1.93
2023-04-09T18:08:52.813Z,2.23
2023-04-09T18:11:23.923Z,1.80
2023-04-09T18:16:33.017Z,1.90
2023-04-09T18:19:04.741Z,2.03
2023-04-09T18:21:36.919Z,1.60
2023-04-09T18:24:08.336Z,2.87
2023-04-09T18:26:39.123Z,1.60
2023-04-09T18:29:10.459Z,1.73
2023-04-09T18:31:41.316Z,3.00
2023-04-09T18:34:12.730Z,2.93
2023-04-09T18:36:43.538Z,2.57
2023-04-09T18:39:15.603Z,1.50
2023-04-09T18:41:46.994Z,2.43
2023-04-09T18:44:18.044Z,2.85
2023-04-09T18:46:48.946Z,2.33
2023-04-09T18:49:20.212Z,2.67
2023-04-09T18:51:51.403Z,2.00
2023-04-09T18:54:22.820Z,2.87
2023-04-09T18:56:53.728Z,2.00
2023-04-09T18:59:24.538Z,2.17
2023-04-09T19:01:55.729Z,3.03
2023-04-09T19:04:28.182Z,1.90
2023-04-09T19:06:59.079Z,3.30
2023-04-09T19:09:30.002Z,2.60
2023-04-09T19:12:01.696Z,2.33
2023-04-09T19:14:32.589Z,2.40
2023-04-09T19:17:04.385Z,2.00
2023-04-09T19:19:36.215Z,2.13
2023-04-09T19:22:07.178Z,2.07
2023-04-09T19:24:38.919Z,2.43
2023-04-09T19:27:11.586Z,2.00
2023-04-09T19:29:43.193Z,3.23
2023-04-09T19:32:15.011Z,2.20
2023-04-09T19:34:45.805Z,1.87
2023-04-09T19:37:18.060Z,1.90
2023-04-09T19:39:49.590Z,2.80
2023-04-09T19:42:20.872Z,2.17
2023-04-09T19:44:52.325Z,2.20
2023-04-09T19:47:23.198Z,2.37
2023-04-09T19:49:54.310Z,2.20
2023-04-09T19:55:04.532Z,2.37
2023-04-09T19:57:35.204Z,2.43
2023-04-09T20:00:07.410Z,5.33
2023-04-09T20:02:39.710Z,2.30
2023-04-09T20:05:12.539Z,2.03
2023-04-09T20:07:44.551Z,1.60
2023-04-09T20:10:15.804Z,2.57
2023-04-09T20:12:49.438Z,2.53
2023-04-09T20:15:20.968Z,1.87
2023-04-09T20:17:52.896Z,2.07
2023-04-09T20:20:23.553Z,3.00
2023-04-09T20:22:56.357Z,2.53
2023-04-09T20:25:27.974Z,3.40
2023-04-09T20:27:58.650Z,3.60
2023-04-09T20:30:29.386Z,3.10
2023-04-09T20:33:00.069Z,2.07
2023-04-09T20:35:30.953Z,2.33
2023-04-09T20:38:01.648Z,2.13
2023-04-09T20:40:35.513Z,2.40
2023-04-09T20:43:06.666Z,2.60
2023-04-09T20:45:37.280Z,3.07
2023-04-09T20:48:08.497Z,2.20
2023-04-09T20:50:39.209Z,2.60
2023-04-09T20:53:10.371Z,3.33
2023-04-09T20:55:41.104Z,2.23
2023-04-09T20:58:11.912Z,2.00
2023-04-09T21:00:42.794Z,2.40
2023-04-09T21:03:13.599Z,2.27
2023-04-09T21:05:44.500Z,3.43
2023-04-09T21:08:15.631Z,3.47
2023-04-09T21:10:46.410Z,4.37
2023-04-09T21:13:17.052Z,2.80
2023-04-09T21:15:47.746Z,2.53
2023-04-09T21:18:18.688Z,1.70
2023-04-09T21:20:49.817Z,2.27
2023-04-09T21:23:20.563Z,2.10
2023-04-09T21:25:51.296Z,2.43
2023-04-09T21:28:22.031Z,3.07
2023-04-09T21:30:52.926Z,1.80
2023-04-09T21:33:23.641Z,2.30
2023-04-09T21:35:55.552Z,2.30
2023-04-09T21:38:26.253Z,2.07
2023-04-09T21:40:57.517Z,2.10
2023-04-09T21:43:29.384Z,1.70
2023-04-09T21:46:00.266Z,1.87
2023-04-09T21:48:31.720Z,4.03
2023-04-09T21:51:02.831Z,1.93
2023-04-09T21:53:34.091Z,2.10
2023-04-09T21:56:05.142Z,1.53
2023-04-09T21:58:36.035Z,1.93
2023-04-09T22:01:15.774Z,1.97
2023-04-09T22:03:40.234Z,1.90
2023-04-09T22:06:12.573Z,2.00
2023-04-09T22:08:55.470Z,3.40
2023-04-09T22:11:17.181Z,2.23
2023-04-09T22:13:47.761Z,2.57
2023-04-09T22:16:19.206Z,2.40
2023-04-09T22:18:49.894Z,2.50
2023-04-09T22:21:21.075Z,5.40
2023-04-09T22:23:51.687Z,2.07
2023-04-09T22:26:22.876Z,3.17
2023-04-09T22:28:53.762Z,2.50
2023-04-09T22:31:25.031Z,2.23
2023-04-09T22:33:55.825Z,2.10
2023-04-09T22:36:27.476Z,2.20
2023-04-09T22:38:58.180Z,2.00
2023-04-09T22:41:30.929Z,2.87
2023-04-09T22:44:01.819Z,2.53
2023-04-09T22:46:32.879Z,2.00
2023-04-09T22:49:05.377Z,2.43
2023-04-09T22:51:36.197Z,2.37
2023-04-09T22:54:07.201Z,2.30
2023-04-09T22:56:38.214Z,3.40
2023-04-09T22:59:08.862Z,2.13
2023-04-09T23:01:39.605Z,2.20
2023-04-09T23:04:10.718Z,2.43
2023-04-09T23:06:41.828Z,2.80
2023-04-09T23:09:12.701Z,2.10
2023-04-09T23:11:43.944Z,3.60
2023-04-09T23:14:14.555Z,2.60
2023-04-09T23:16:45.124Z,2.33
2023-04-09T23:19:15.804Z,1.83
2023-04-09T23:21:46.632Z,2.03
2023-04-09T23:24:17.862Z,2.30
2023-04-09T23:26:48.495Z,2.97
2023-04-09T23:29:19.203Z,2.97
2023-04-09T23:31:50.161Z,3.30
2023-04-09T23:34:20.891Z,2.73
2023-04-09T23:36:51.764Z,2.27
2023-04-09T23:39:22.591Z,3.67
2023-04-09T23:41:53.334Z,2.60
2023-04-09T23:44:23.983Z,2.90
2023-04-09T23:46:54.704Z,2.50
2023-04-09T23:49:25.438Z,2.17
2023-04-09T23:51:56.166Z,2.90
2023-04-09T23:54:26.851Z,2.03
2023-04-09T23:56:57.906Z,3.13
2023-04-09T23:59:30.053Z,2.70
